createdAt,value
2019-04-20T00:01:38.985Z,2.2
2019-04-20T00:04:39.181Z,2.1
2019-04-20T00:07:37.870Z,2.2
2019-04-20T00:16:27.680Z,2.2
2019-04-20T00:22:59.850Z,2.3
2019-04-20T00:34:54.081Z,2.2
2019-04-20T00:37:28.124Z,2.1
2019-04-20T00:40:26.987Z,2
2019-04-20T00:43:47.396Z,2
2019-04-20T00:55:27.755Z,2.2
2019-04-20T01:11:04.279Z,2.1
2019-04-20T01:14:05.772Z,2
2019-04-20T01:19:27.002Z,2
2019-04-20T01:40:27.863Z,2.3
2019-04-20T01:43:27.377Z,2.1
2019-04-20T01:47:04.610Z,2.1
2019-04-20T01:50:22.468Z,2
2019-04-20T02:02:08.458Z,2
2019-04-20T02:08:00.363Z,1.9
2019-04-20T02:25:27.364Z,2.1
2019-04-20T03:43:27.036Z,2.1
2019-04-20T04:13:29.333Z,2
2019-04-20T04:46:27.246Z,2.2
2019-04-20T04:58:28.154Z,2.1
2019-04-20T05:01:57.021Z,2.2
2019-04-20T05:10:26.995Z,2.4
2019-04-20T08:59:27.013Z,2.5
2019-04-20T09:02:28.578Z,2.4
2019-04-20T09:14:44.699Z,2.8
2019-04-20T09:42:36.839Z,2.5
2019-04-20T10:17:14.085Z,2.2
2019-04-20T10:26:14.754Z,2.8
2019-04-20T10:29:15.711Z,2.6
2019-04-20T10:35:19.068Z,2.7
2019-04-20T10:38:15.761Z,2.5
2019-04-20T10:44:15.024Z,2.5
2019-04-20T10:47:15.013Z,2.7
2019-04-20T10:50:14.535Z,2.5
2019-04-20T10:53:14.363Z,2.4
2019-04-20T10:56:14.194Z,3.7
2019-04-20T10:59:14.228Z,4.4
2019-04-20T11:02:16.096Z,4.2
2019-04-20T11:05:15.060Z,3.8
2019-04-20T11:08:15.218Z,5.8
2019-04-20T11:17:14.520Z,5.9
2019-04-20T11:20:15.489Z,5.4
2019-04-20T11:23:14.400Z,4.8
2019-04-20T11:26:14.378Z,5.3
2019-04-20T11:29:14.395Z,4.9
2019-04-20T11:32:16.248Z,5.3
2019-04-20T11:38:17.796Z,4.5
2019-04-20T11:44:15.736Z,4.3
2019-04-20T11:47:17.024Z,4.5
2019-04-20T11:50:15.880Z,5.3
2019-04-20T11:53:15.699Z,6
2019-04-20T11:59:15.035Z,18.8
2019-04-20T12:08:14.399Z,14.7
2019-04-20T12:14:14.825Z,14
2019-04-20T12:17:15.870Z,13.1
2019-04-20T12:20:14.877Z,12.3
2019-04-20T12:23:14.328Z,11.5
2019-04-20T12:26:16.347Z,10.3
2019-04-20T12:29:14.325Z,10.1
2019-04-20T12:32:14.991Z,10.2
2019-04-20T12:35:14.474Z,11.4
2019-04-20T12:38:15.210Z,10.1
2019-04-20T12:44:14.441Z,8.6
2019-04-20T12:47:14.466Z,10
2019-04-20T12:50:14.264Z,9.5
2019-04-20T12:53:15.121Z,8.7
2019-04-20T12:56:15.031Z,8.1
2019-04-20T12:59:15.975Z,9.4
2019-04-20T13:02:15.996Z,9.1
2019-04-20T13:05:15.782Z,8.9
2019-04-20T13:11:14.262Z,7.1
2019-04-20T13:14:14.856Z,8.8
2019-04-20T13:17:14.909Z,8.2
2019-04-20T13:20:14.397Z,7.5
2019-04-20T13:23:15.334Z,8.1
2019-04-20T13:26:19.660Z,7.9
2019-04-20T13:29:15.287Z,6.8
2019-04-20T13:32:14.302Z,6.3
2019-04-20T13:35:14.398Z,6
2019-04-20T13:38:14.522Z,5.9
2019-04-20T13:41:14.182Z,5.3
2019-04-20T13:44:15.918Z,6.3
2019-04-20T13:47:16.893Z,6.1
2019-04-20T13:50:16.395Z,5.7
2019-04-20T13:53:17.314Z,6
2019-04-20T13:56:16.414Z,5.3
2019-04-20T13:59:16.630Z,4.9
2019-04-20T14:02:17.415Z,5.5
2019-04-20T14:05:15.140Z,7.2
2019-04-20T14:08:15.842Z,6.3
2019-04-20T14:11:15.863Z,6.4
2019-04-20T14:14:15.515Z,5.5
2019-04-20T14:17:15.406Z,5.9
2019-04-20T14:20:27.244Z,8.9
2019-04-20T14:23:15.260Z,8.2
2019-04-20T14:26:14.955Z,7.4
2019-04-20T14:29:15.094Z,7.8
2019-04-20T14:32:15.465Z,8.4
2019-04-20T14:35:14.958Z,8
2019-04-20T14:38:15.806Z,7.5
2019-04-20T14:41:14.254Z,7.6
2019-04-20T14:44:14.400Z,8.1
2019-04-20T14:47:14.303Z,8.9
2019-04-20T14:50:16.193Z,9.4
2019-04-20T14:53:15.669Z,7.9
2019-04-20T14:56:15.898Z,7.5
2019-04-20T14:59:15.842Z,7.1
2019-04-20T15:02:17.027Z,7.7
2019-04-20T15:05:15.252Z,7
2019-04-20T15:08:14.639Z,5.8
2019-04-20T15:11:15.080Z,5.8
2019-04-20T15:14:14.907Z,5.5
2019-04-20T15:17:15.819Z,5.8
2019-04-20T15:20:15.559Z,5.5
2019-04-20T15:23:15.483Z,4.5
2019-04-20T15:26:14.326Z,4.9
2019-04-20T15:29:14.905Z,5.4
2019-04-20T15:32:16.598Z,5.4
2019-04-20T15:35:26.468Z,5.8
2019-04-20T15:38:15.773Z,5.9
2019-04-20T15:41:18.889Z,5.8
2019-04-20T15:44:15.757Z,5
2019-04-20T15:47:15.652Z,4.1
2019-04-20T15:50:14.231Z,4.8
2019-04-20T15:53:15.952Z,4.9
2019-04-20T15:56:14.791Z,4.5
2019-04-20T15:59:15.013Z,4.5
2019-04-20T16:02:15.861Z,4
2019-04-20T16:05:14.783Z,4.2
2019-04-20T16:08:14.490Z,3.6
2019-04-20T16:11:15.620Z,3.7
2019-04-20T16:14:15.734Z,3.8
2019-04-20T16:17:15.509Z,3.9
2019-04-20T16:23:14.880Z,4.1
2019-04-20T16:26:15.758Z,3.7
2019-04-20T16:29:15.636Z,4.3
2019-04-20T16:32:14.749Z,4.6
2019-04-20T16:35:14.520Z,5.9
2019-04-20T16:38:14.589Z,5.5
2019-04-20T16:41:15.035Z,7.1
2019-04-20T16:44:17.232Z,7
2019-04-20T16:47:14.657Z,6.6
2019-04-20T16:50:15.270Z,5.5
2019-04-20T16:53:15.296Z,5.5
2019-04-20T16:56:22.718Z,5.1
2019-04-20T16:59:22.692Z,4.2
2019-04-20T17:02:22.947Z,5.1
2019-04-20T17:05:14.308Z,4.2
2019-04-20T17:08:17.116Z,3.9
2019-04-20T17:11:16.151Z,3.9
2019-04-20T17:14:15.161Z,3.7
2019-04-20T17:17:15.982Z,3.4
2019-04-20T17:20:15.923Z,3.7
2019-04-20T17:23:15.324Z,3.9
2019-04-20T17:26:15.082Z,3.6
2019-04-20T17:29:16.505Z,3.4
2019-04-20T17:32:16.190Z,3.4
2019-04-20T17:38:16.578Z,4.6
2019-04-20T17:56:15.734Z,5.3
2019-04-20T17:59:14.772Z,5.7
2019-04-20T18:20:18.694Z,3.6
2019-04-20T18:23:14.156Z,3.5
2019-04-20T18:32:15.737Z,3.7
2019-04-20T18:35:14.398Z,3.5
2019-04-20T18:38:20.335Z,3.4
2019-04-20T18:44:15.179Z,3.3
2019-04-20T18:59:14.778Z,3.3
2019-04-20T19:05:16.016Z,3.4
2019-04-20T19:11:29.074Z,3.1
2019-04-20T19:20:14.432Z,3.3
2019-04-20T19:23:15.085Z,3.2
2019-04-20T19:26:30.399Z,3.1
2019-04-20T20:02:18.147Z,4.7
2019-04-20T20:23:14.557Z,3.5
2019-04-20T21:05:15.634Z,4.2
2019-04-20T21:08:15.867Z,3.8
2019-04-20T21:29:40.677Z,3.2
2019-04-20T21:32:24.144Z,3.2
2019-04-20T21:35:18.126Z,3.1
2019-04-20T21:41:31.123Z,3.4
2019-04-20T21:56:14.021Z,4.1
2019-04-20T22:05:15.393Z,3.5
2019-04-20T22:08:20.082Z,3.8
2019-04-20T22:11:14.017Z,3.8
2019-04-20T22:14:35.851Z,4.2
2019-04-20T22:29:15.978Z,3.6
2019-04-20T22:32:24.212Z,3.9
2019-04-20T22:35:26.211Z,3.6
2019-04-20T22:38:20.907Z,3.7
2019-04-20T22:41:28.182Z,3.5
2019-04-20T23:02:31.585Z,3.6
2019-04-20T23:05:15.446Z,3.5
2019-04-20T23:08:15.234Z,3.4
2019-04-20T23:14:16.566Z,3.6
2019-04-20T23:23:35.736Z,3.5
2019-04-20T23:29:15.621Z,3.6
2019-04-20T23:32:32.097Z,3.5
2019-04-20T23:38:26.570Z,3.4
2019-04-20T23:41:13.864Z,3.3
2019-04-20T23:44:19.407Z,3.2
2019-04-20T23:47:25.705Z,3.3
2019-04-20T23:56:25.598Z,3.2
